createdAt,value
2023-01-28T00:00:28.513Z,12.30
2023-01-28T00:01:21.948Z,11.40
2023-01-28T00:01:55.268Z,11.90
2023-01-28T00:02:28.592Z,12.40
2023-01-28T00:03:02.245Z,11.80
2023-01-28T00:03:35.958Z,12.00
2023-01-28T00:04:09.432Z,12.40
2023-01-28T00:04:42.802Z,11.90
2023-01-28T00:05:16.665Z,12.60
2023-01-28T00:05:54.018Z,12.40
2023-01-28T00:06:27.362Z,12.20
2023-01-28T00:07:02.833Z,12.40
2023-01-28T00:07:36.524Z,11.80
2023-01-28T00:08:10.475Z,12.60
2023-01-28T00:08:43.871Z,12.40
2023-01-28T00:09:19.361Z,13.10
2023-01-28T00:09:55.009Z,12.70
2023-01-28T00:10:28.395Z,13.10
2023-01-28T00:11:04.011Z,12.60
2023-01-28T00:11:37.473Z,12.70
2023-01-28T00:12:13.168Z,12.60
2023-01-28T00:12:46.566Z,13.10
2023-01-28T00:13:19.957Z,13.30
2023-01-28T00:13:54.407Z,12.70
2023-01-28T00:14:28.355Z,13.60
2023-01-28T00:15:01.709Z,13.50
2023-01-28T00:15:35.228Z,13.10
2023-01-28T00:16:09.921Z,13.70
2023-01-28T00:16:43.508Z,13.70
2023-01-28T00:17:16.899Z,13.90
2023-01-28T00:17:52.367Z,13.90
2023-01-28T00:18:26.923Z,14.20
2023-01-28T00:19:00.262Z,14.10
2023-01-28T00:19:33.799Z,14.40
2023-01-28T00:20:10.052Z,13.50
2023-01-28T00:20:43.467Z,14.00
2023-01-28T00:21:16.899Z,13.90
2023-01-28T00:21:50.282Z,14.10
2023-01-28T00:22:23.703Z,14.40
2023-01-28T00:23:07.186Z,14.40
2023-01-28T00:23:43.251Z,13.70
2023-01-28T00:24:16.683Z,13.20
2023-01-28T00:24:50.227Z,14.30
2023-01-28T00:25:23.607Z,14.30
2023-01-28T00:26:01.919Z,14.40
2023-01-28T00:26:36.394Z,15.10
2023-01-28T00:27:09.923Z,15.60
2023-01-28T00:27:43.350Z,15.20
2023-01-28T00:28:16.722Z,15.80
2023-01-28T00:28:50.231Z,15.40
2023-01-28T00:29:23.617Z,16.20
2023-01-28T00:29:56.976Z,16.10
2023-01-28T00:30:30.249Z,16.10
2023-01-28T00:31:10.162Z,15.70
2023-01-28T00:31:45.745Z,16.40
2023-01-28T00:32:19.326Z,16.00
2023-01-28T00:32:57.039Z,16.40
2023-01-28T00:33:30.390Z,16.90
2023-01-28T00:34:03.897Z,16.20
2023-01-28T00:34:38.672Z,16.50
2023-01-28T00:35:14.060Z,16.60
2023-01-28T00:35:48.192Z,16.00
2023-01-28T00:36:23.881Z,16.60
2023-01-28T00:37:02.569Z,15.70
2023-01-28T00:37:38.413Z,15.80
2023-01-28T00:38:14.823Z,16.30
2023-01-28T00:38:52.571Z,15.80
2023-01-28T00:39:27.193Z,15.60
2023-01-28T00:40:00.517Z,16.10
2023-01-28T00:40:35.714Z,16.80
2023-01-28T00:41:15.564Z,16.10
2023-01-28T00:41:48.930Z,15.40
2023-01-28T00:42:23.132Z,15.80
2023-01-28T00:42:56.562Z,15.60
2023-01-28T00:43:29.960Z,16.10
2023-01-28T00:44:03.387Z,16.20
2023-01-28T00:44:36.935Z,16.70
2023-01-28T00:45:10.772Z,16.40
2023-01-28T00:45:48.566Z,16.30
2023-01-28T00:46:24.120Z,16.50
2023-01-28T00:46:57.681Z,16.00
2023-01-28T00:47:31.057Z,16.80
2023-01-28T00:48:05.182Z,16.60
2023-01-28T00:48:40.526Z,15.40
2023-01-28T00:49:13.977Z,15.60
2023-01-28T00:49:47.665Z,16.90
2023-01-28T00:50:24.421Z,16.70
2023-01-28T00:51:02.026Z,15.80
2023-01-28T00:51:35.627Z,16.60
2023-01-28T00:52:08.953Z,16.00
2023-01-28T00:52:44.793Z,16.60
2023-01-28T00:53:18.178Z,16.10
2023-01-28T00:53:51.648Z,16.20
2023-01-28T00:54:25.316Z,16.70
2023-01-28T00:54:59.126Z,17.00
2023-01-28T00:55:32.649Z,16.50
2023-01-28T00:56:08.097Z,17.50
2023-01-28T00:56:41.456Z,16.70
2023-01-28T00:57:15.072Z,16.70
2023-01-28T00:57:49.087Z,16.60
2023-01-28T00:58:24.369Z,16.90
2023-01-28T00:58:57.880Z,15.80
2023-01-28T00:59:31.343Z,16.40
2023-01-28T01:00:06.238Z,16.40
2023-01-28T01:00:39.557Z,15.30
2023-01-28T01:01:27.583Z,15.30
2023-01-28T01:02:12.790Z,15.00
2023-01-28T01:02:46.499Z,15.00
2023-01-28T01:03:20.961Z,15.70
2023-01-28T01:04:02.912Z,15.20
2023-01-28T01:04:37.043Z,15.30
2023-01-28T01:05:10.430Z,15.80
2023-01-28T01:05:44.027Z,15.10
2023-01-28T01:06:17.385Z,16.20
2023-01-28T01:06:50.626Z,15.40
2023-01-28T01:07:32.386Z,15.60
2023-01-28T01:08:06.054Z,15.70
2023-01-28T01:08:43.898Z,15.50
2023-01-28T01:09:19.967Z,15.00
2023-01-28T01:09:53.408Z,15.70
2023-01-28T01:10:27.114Z,16.00
2023-01-28T01:11:02.268Z,16.50
2023-01-28T01:11:36.330Z,15.60
2023-01-28T01:12:09.736Z,15.70
2023-01-28T01:12:43.093Z,15.50
2023-01-28T01:13:16.471Z,15.90
2023-01-28T01:13:58.269Z,17.10
2023-01-28T01:14:31.811Z,15.80
2023-01-28T01:15:09.138Z,16.00
2023-01-28T01:15:42.514Z,15.20
2023-01-28T01:16:16.861Z,15.00
2023-01-28T01:16:50.314Z,16.10
2023-01-28T01:17:25.706Z,15.70
2023-01-28T01:17:59.503Z,15.60
2023-01-28T01:18:34.257Z,16.70
2023-01-28T01:19:09.545Z,15.10
2023-01-28T01:19:43.080Z,16.60
2023-01-28T01:20:25.513Z,16.10
2023-01-28T01:20:59.628Z,15.00
2023-01-28T01:21:33.028Z,15.00
2023-01-28T01:22:06.545Z,16.20
2023-01-28T01:22:40.557Z,16.40
2023-01-28T01:23:13.937Z,16.30
2023-01-28T01:23:48.037Z,14.80
2023-01-28T01:24:21.516Z,13.90
2023-01-28T01:24:57.359Z,15.90
2023-01-28T01:25:30.704Z,15.00
2023-01-28T01:26:05.431Z,15.80
2023-01-28T01:26:38.821Z,15.30
2023-01-28T01:27:12.236Z,16.40
2023-01-28T01:27:48.544Z,16.70
2023-01-28T01:28:22.834Z,16.60
2023-01-28T01:28:56.454Z,16.20
2023-01-28T01:29:29.939Z,17.00
2023-01-28T01:30:04.143Z,16.30
2023-01-28T01:30:37.492Z,17.20
2023-01-28T01:31:15.247Z,16.40
2023-01-28T01:31:48.675Z,16.60
2023-01-28T01:32:22.556Z,14.80
2023-01-28T01:32:56.124Z,17.40
2023-01-28T01:33:30.868Z,14.80
2023-01-28T01:34:04.693Z,15.90
2023-01-28T01:34:38.235Z,16.10
2023-01-28T01:35:11.715Z,15.90
2023-01-28T01:35:54.801Z,16.10
2023-01-28T01:36:28.323Z,14.50
2023-01-28T01:37:01.738Z,15.70
2023-01-28T01:37:37.299Z,15.60
2023-01-28T01:38:14.258Z,16.70
2023-01-28T01:38:48.200Z,16.00
2023-01-28T01:39:21.630Z,16.60
2023-01-28T01:39:55.314Z,17.20
2023-01-28T01:40:29.860Z,15.70
2023-01-28T01:41:04.853Z,16.10
2023-01-28T01:41:39.007Z,16.00
2023-01-28T01:42:13.724Z,16.50
2023-01-28T01:42:47.182Z,16.20
2023-01-28T01:43:23.031Z,17.00
2023-01-28T01:44:03.215Z,17.60
2023-01-28T01:44:55.091Z,16.30
2023-01-28T01:45:33.438Z,14.90
2023-01-28T01:46:09.312Z,16.40
2023-01-28T01:46:47.687Z,16.80
2023-01-28T01:47:28.252Z,16.20
2023-01-28T01:48:12.172Z,16.70
2023-01-28T01:48:46.218Z,16.80
2023-01-28T01:49:23.545Z,17.10
2023-01-28T01:49:58.771Z,16.30
2023-01-28T01:50:44.627Z,17.40
2023-01-28T01:51:23.915Z,16.60
2023-01-28T01:52:03.883Z,17.50
2023-01-28T01:52:37.531Z,17.10
2023-01-28T01:53:19.346Z,16.90
2023-01-28T01:53:56.101Z,16.50
2023-01-28T01:54:32.020Z,15.40
2023-01-28T01:55:09.724Z,15.20
2023-01-28T01:55:48.330Z,15.90
2023-01-28T01:56:29.348Z,16.40
2023-01-28T01:57:05.696Z,16.30
2023-01-28T01:57:39.228Z,17.20
2023-01-28T01:58:17.025Z,17.40
2023-01-28T01:58:55.864Z,17.10
2023-01-28T01:59:32.190Z,17.10
2023-01-28T02:00:09.303Z,17.00
2023-01-28T02:00:48.497Z,16.40
2023-01-28T02:01:24.302Z,17.70
2023-01-28T02:02:01.807Z,18.30
2023-01-28T02:02:39.934Z,17.20
2023-01-28T02:03:15.939Z,16.30
2023-01-28T02:04:24.706Z,18.90
2023-01-28T02:04:58.176Z,16.70
2023-01-28T02:05:31.871Z,17.30
2023-01-28T02:06:08.441Z,17.70
2023-01-28T02:06:42.818Z,18.50
2023-01-28T02:07:19.185Z,18.60
2023-01-28T02:08:17.410Z,18.20
2023-01-28T02:08:55.804Z,17.20
2023-01-28T02:09:36.372Z,17.20
2023-01-28T02:10:11.551Z,17.70
2023-01-28T02:10:47.194Z,17.90
2023-01-28T02:11:21.326Z,18.70
2023-01-28T02:12:01.749Z,18.50
2023-01-28T02:12:38.996Z,18.50
2023-01-28T02:13:13.928Z,18.40
2023-01-28T02:13:52.505Z,18.40
2023-01-28T02:14:32.033Z,18.00
2023-01-28T02:15:17.629Z,19.00
2023-01-28T02:15:54.136Z,18.20
2023-01-28T02:16:29.254Z,17.10
2023-01-28T02:17:04.612Z,18.30
2023-01-28T02:17:38.962Z,19.90
2023-01-28T02:18:12.564Z,18.70
2023-01-28T02:18:46.123Z,18.80
2023-01-28T02:19:23.610Z,20.10
2023-01-28T02:20:08.749Z,20.20
2023-01-28T02:20:57.350Z,19.00
2023-01-28T02:22:25.689Z,18.10
2023-01-28T02:23:36.953Z,16.20
2023-01-28T02:24:34.510Z,16.20
2023-01-28T02:25:29.936Z,16.40
2023-01-28T02:26:22.050Z,16.50
2023-01-28T02:27:32.993Z,14.80
2023-01-28T02:28:24.996Z,15.00
2023-01-28T02:29:24.846Z,16.60
2023-01-28T02:30:03.560Z,15.10
2023-01-28T02:30:47.985Z,17.00
2023-01-28T02:31:21.471Z,17.30
2023-01-28T02:32:05.956Z,18.30
2023-01-28T02:32:46.356Z,18.60
2023-01-28T02:33:36.939Z,18.00
2023-01-28T02:34:13.158Z,18.40
2023-01-28T02:35:06.937Z,18.30
2023-01-28T02:35:50.248Z,18.30
2023-01-28T02:36:37.467Z,18.20
2023-01-28T02:37:35.140Z,18.60
2023-01-28T02:38:14.514Z,17.40
2023-01-28T02:38:51.228Z,18.00
2023-01-28T02:39:34.818Z,18.90
2023-01-28T02:40:20.571Z,17.50
2023-01-28T02:41:06.836Z,19.40
2023-01-28T02:41:49.307Z,18.30
2023-01-28T02:42:38.336Z,18.60
2023-01-28T02:43:11.768Z,17.70
2023-01-28T02:43:47.204Z,18.00
2023-01-28T02:44:20.600Z,18.70
2023-01-28T02:44:54.080Z,19.30
2023-01-28T02:45:52.443Z,18.80
2023-01-28T02:46:44.781Z,17.50
2023-01-28T02:47:36.725Z,18.60
2023-01-28T02:48:10.406Z,18.60
2023-01-28T02:48:47.237Z,18.80
2023-01-28T02:51:47.212Z,16.00
2023-01-28T02:52:51.601Z,17.50
2023-01-28T02:53:45.462Z,16.40
2023-01-28T02:54:23.907Z,16.60
2023-01-28T02:55:09.568Z,18.40
2023-01-28T02:55:57.784Z,16.80
2023-01-28T02:56:53.202Z,17.60
2023-01-28T02:58:04.787Z,17.70
2023-01-28T02:58:46.270Z,16.90
2023-01-28T02:59:32.099Z,17.50
2023-01-28T03:00:09.156Z,18.30
2023-01-28T03:01:02.592Z,17.80
2023-01-28T03:01:42.471Z,16.80
2023-01-28T03:02:38.125Z,18.00
2023-01-28T03:03:24.820Z,17.80
2023-01-28T03:04:24.457Z,17.10
2023-01-28T03:05:07.700Z,17.10
2023-01-28T03:06:07.168Z,18.10
2023-01-28T03:06:46.636Z,17.20
2023-01-28T03:07:20.802Z,16.00
2023-01-28T03:07:54.446Z,17.50
2023-01-28T03:08:46.817Z,19.10
2023-01-28T03:09:23.083Z,18.50
2023-01-28T03:09:59.196Z,18.60
2023-01-28T03:10:35.161Z,18.40
2023-01-28T03:11:28.215Z,19.00
2023-01-28T03:12:39.217Z,18.70
2023-01-28T03:13:31.939Z,17.00
2023-01-28T03:14:26.690Z,18.50
2023-01-28T03:15:30.245Z,17.90
2023-01-28T03:16:22.676Z,17.10
2023-01-28T03:17:18.637Z,17.60
2023-01-28T03:18:32.373Z,17.40
2023-01-28T03:19:24.689Z,18.20
2023-01-28T03:20:16.945Z,18.00
2023-01-28T03:21:16.371Z,17.70
2023-01-28T03:22:09.548Z,15.70
2023-01-28T03:23:08.057Z,18.80
2023-01-28T03:24:12.723Z,17.60
2023-01-28T03:25:09.396Z,18.20
2023-01-28T03:26:05.599Z,17.30
2023-01-28T03:27:22.007Z,17.10
2023-01-28T03:28:24.118Z,15.80
2023-01-28T03:29:24.672Z,17.50
2023-01-28T03:30:20.521Z,17.70
2023-01-28T03:31:30.372Z,17.30
2023-01-28T03:32:23.641Z,16.60
2023-01-28T03:33:17.731Z,18.10
2023-01-28T03:34:11.660Z,17.80
2023-01-28T03:35:05.677Z,17.50
2023-01-28T03:35:58.708Z,17.10
2023-01-28T03:36:51.105Z,18.40
2023-01-28T03:37:54.468Z,16.70
2023-01-28T03:38:42.441Z,18.60
2023-01-28T03:39:22.251Z,18.20
2023-01-28T03:39:58.414Z,20.20
2023-01-28T03:40:32.222Z,20.40
2023-01-28T03:41:05.658Z,21.20
2023-01-28T03:41:39.257Z,21.00
2023-01-28T03:42:14.927Z,21.90
2023-01-28T03:43:12.521Z,19.50
2023-01-28T03:43:45.932Z,21.50
2023-01-28T03:44:38.367Z,21.60
2023-01-28T03:45:12.187Z,19.20
2023-01-28T03:45:46.613Z,21.00
2023-01-28T03:46:20.113Z,20.50
2023-01-28T03:46:53.871Z,21.80
2023-01-28T03:47:29.986Z,21.50
2023-01-28T03:48:03.442Z,21.80
2023-01-28T03:48:37.051Z,22.00
2023-01-28T03:49:11.519Z,22.90
2023-01-28T03:49:50.924Z,22.90
2023-01-28T03:50:26.237Z,20.60
2023-01-28T03:51:07.493Z,21.60
2023-01-28T03:51:41.090Z,21.70
2023-01-28T03:52:22.352Z,21.70
2023-01-28T03:53:15.939Z,20.20
2023-01-28T03:53:54.034Z,19.90
2023-01-28T03:54:27.791Z,20.70
2023-01-28T03:55:01.765Z,22.40
2023-01-28T03:55:35.451Z,20.70
2023-01-28T03:56:09.132Z,21.70
2023-01-28T03:56:46.215Z,22.10
2023-01-28T03:57:24.288Z,21.30
2023-01-28T03:57:57.912Z,21.30
2023-01-28T03:58:53.115Z,22.00
2023-01-28T03:59:26.664Z,19.90
2023-01-28T04:00:01.126Z,21.90
2023-01-28T04:00:38.210Z,21.00
2023-01-28T04:01:11.896Z,21.90
2023-01-28T04:01:45.315Z,20.80
2023-01-28T04:02:21.181Z,22.00
2023-01-28T04:02:55.452Z,22.70
2023-01-28T04:03:28.994Z,22.40
2023-01-28T04:04:08.535Z,22.30
2023-01-28T04:04:42.508Z,22.20
2023-01-28T04:05:20.067Z,21.90
2023-01-28T04:06:03.708Z,20.60
2023-01-28T04:07:08.902Z,18.20
2023-01-28T04:08:07.952Z,19.70
2023-01-28T04:08:53.182Z,20.20
2023-01-28T04:09:46.971Z,20.20
2023-01-28T04:10:41.929Z,20.60
2023-01-28T04:11:28.968Z,20.20
2023-01-28T04:12:05.215Z,21.20
2023-01-28T04:12:44.299Z,21.90
2023-01-28T04:13:18.660Z,21.20
2023-01-28T04:13:52.888Z,22.60
2023-01-28T04:14:27.576Z,21.30
2023-01-28T04:15:16.063Z,21.80
2023-01-28T04:15:52.384Z,22.40
2023-01-28T04:16:26.006Z,23.30
2023-01-28T04:17:02.664Z,23.10
2023-01-28T04:17:36.990Z,22.90
2023-01-28T04:18:18.047Z,22.60
2023-01-28T04:19:26.582Z,20.40
2023-01-28T04:20:00.924Z,20.70
2023-01-28T04:20:34.933Z,22.10
2023-01-28T04:21:08.588Z,22.50
2023-01-28T04:21:42.918Z,23.10
2023-01-28T04:22:18.883Z,23.40
2023-01-28T04:22:52.503Z,23.10
2023-01-28T04:23:29.936Z,22.90
2023-01-28T04:24:03.781Z,22.00
2023-01-28T04:24:37.340Z,22.30
2023-01-28T04:25:11.478Z,22.60
2023-01-28T04:25:44.966Z,22.30
2023-01-28T04:26:18.413Z,22.80
2023-01-28T04:26:53.788Z,23.10
2023-01-28T04:27:28.872Z,21.00
2023-01-28T04:28:05.783Z,21.30
2023-01-28T04:28:39.257Z,22.00
2023-01-28T04:29:12.737Z,22.20
2023-01-28T04:29:46.202Z,22.60
2023-01-28T04:30:36.048Z,23.00
2023-01-28T04:31:28.225Z,21.10
2023-01-28T04:32:22.012Z,20.90
2023-01-28T04:33:11.672Z,22.30
2023-01-28T04:34:00.542Z,21.80
2023-01-28T04:34:45.660Z,20.60
2023-01-28T04:35:39.559Z,19.00
2023-01-28T04:36:28.499Z,19.50
2023-01-28T04:37:13.557Z,20.20
2023-01-28T04:37:50.955Z,20.60
2023-01-28T04:38:47.141Z,19.60
2023-01-28T04:39:39.649Z,19.90
2023-01-28T04:40:22.855Z,19.80
2023-01-28T04:41:11.014Z,19.60
2023-01-28T04:41:44.964Z,21.40
2023-01-28T04:42:30.034Z,21.20
2023-01-28T04:43:11.604Z,20.70
2023-01-28T04:44:08.240Z,19.80
2023-01-28T04:45:04.629Z,20.00
2023-01-28T04:46:00.883Z,18.80
2023-01-28T04:46:47.715Z,19.70
2023-01-28T04:47:30.754Z,20.30
2023-01-28T04:48:37.152Z,17.60
2023-01-28T04:49:43.230Z,16.00
2023-01-28T04:50:39.276Z,18.10
2023-01-28T04:51:20.670Z,18.80
2023-01-28T04:52:09.819Z,19.20
2023-01-28T04:53:01.757Z,17.70
2023-01-28T04:54:01.785Z,17.10
2023-01-28T04:54:38.409Z,20.30
2023-01-28T04:55:13.126Z,21.30
2023-01-28T04:55:46.738Z,21.00
2023-01-28T04:56:20.252Z,20.70
2023-01-28T04:56:53.747Z,21.60
2023-01-28T04:57:27.842Z,21.60
2023-01-28T04:58:02.104Z,21.70
2023-01-28T04:58:36.238Z,22.00
2023-01-28T04:59:12.863Z,21.50
2023-01-28T04:59:46.308Z,22.60
2023-01-28T05:00:20.553Z,22.30
2023-01-28T05:00:58.543Z,22.00
2023-01-28T05:01:32.365Z,22.80
2023-01-28T05:02:06.047Z,21.80
2023-01-28T05:02:39.549Z,22.40
2023-01-28T05:03:13.854Z,23.50
2023-01-28T05:03:47.826Z,22.10
2023-01-28T05:04:28.546Z,21.40
2023-01-28T05:05:05.258Z,22.30
2023-01-28T05:05:49.776Z,21.20
2023-01-28T05:06:51.633Z,20.10
2023-01-28T05:07:29.507Z,18.10
2023-01-28T05:08:03.212Z,19.10
2023-01-28T05:08:36.984Z,20.60
2023-01-28T05:09:10.708Z,20.60
2023-01-28T05:09:46.484Z,21.10
2023-01-28T05:10:20.809Z,21.30
2023-01-28T05:10:54.256Z,20.90
2023-01-28T05:11:28.113Z,21.40
2023-01-28T05:12:05.888Z,20.30
2023-01-28T05:12:39.995Z,21.50
2023-01-28T05:13:14.774Z,21.10
2023-01-28T05:13:48.689Z,22.00
2023-01-28T05:14:22.247Z,20.50
2023-01-28T05:15:05.332Z,20.40
2023-01-28T05:15:38.993Z,20.00
2023-01-28T05:16:15.093Z,20.20
2023-01-28T05:16:50.154Z,20.50
2023-01-28T05:17:24.300Z,20.20
2023-01-28T05:17:57.822Z,20.70
2023-01-28T05:18:32.526Z,21.40
2023-01-28T05:19:48.875Z,16.60
2023-01-28T05:20:28.097Z,15.70
2023-01-28T05:21:03.914Z,17.70
2023-01-28T05:21:42.199Z,19.30
2023-01-28T05:22:24.496Z,17.30
2023-01-28T05:23:33.308Z,17.20
2023-01-28T05:24:07.267Z,18.40
2023-01-28T05:24:41.961Z,19.30
2023-01-28T05:25:15.767Z,21.10
2023-01-28T05:25:49.690Z,20.40
2023-01-28T05:26:23.687Z,21.20
2023-01-28T05:26:57.984Z,19.10
2023-01-28T05:27:32.989Z,20.80
2023-01-28T05:28:06.482Z,21.00
2023-01-28T05:28:39.988Z,18.70
2023-01-28T05:29:14.865Z,20.60
2023-01-28T05:29:48.249Z,21.40
2023-01-28T05:30:22.634Z,20.40
2023-01-28T05:30:56.029Z,20.20
2023-01-28T05:31:29.535Z,20.20
2023-01-28T05:32:03.719Z,22.40
2023-01-28T05:32:37.569Z,21.30
2023-01-28T05:33:10.968Z,21.50
2023-01-28T05:33:44.456Z,22.20
2023-01-28T05:34:18.733Z,22.40
2023-01-28T05:34:52.171Z,21.10
2023-01-28T05:35:25.847Z,21.60
2023-01-28T05:36:02.316Z,21.50
2023-01-28T05:36:35.938Z,20.50
2023-01-28T05:37:18.845Z,21.00
2023-01-28T05:37:53.066Z,19.50
2023-01-28T05:38:26.661Z,20.80
2023-01-28T05:39:00.163Z,21.60
2023-01-28T05:39:33.510Z,20.30
2023-01-28T05:40:09.936Z,20.30
2023-01-28T05:40:43.981Z,21.10
2023-01-28T05:41:17.662Z,20.70
2023-01-28T05:41:53.300Z,20.30
2023-01-28T05:42:26.664Z,21.10
2023-01-28T05:43:08.812Z,20.80
2023-01-28T05:43:45.809Z,21.00
2023-01-28T05:44:30.442Z,20.30
2023-01-28T05:45:11.232Z,21.00
2023-01-28T05:46:07.081Z,19.90
2023-01-28T05:47:00.749Z,19.80
2023-01-28T05:48:07.523Z,17.10
2023-01-28T05:48:53.772Z,18.00
2023-01-28T05:49:46.672Z,18.70
2023-01-28T05:50:38.345Z,17.70
2023-01-28T05:51:18.935Z,19.50
2023-01-28T05:52:01.619Z,19.50
2023-01-28T05:52:36.830Z,18.70
2023-01-28T05:53:11.495Z,20.20
2023-01-28T05:53:47.354Z,20.20
2023-01-28T05:54:20.792Z,19.70
2023-01-28T05:54:54.607Z,20.80
2023-01-28T05:55:28.201Z,20.20
2023-01-28T05:56:02.113Z,20.20
2023-01-28T05:56:37.349Z,17.60
2023-01-28T05:57:10.814Z,19.10
2023-01-28T05:57:46.690Z,16.90
2023-01-28T05:58:21.783Z,19.00
2023-01-28T05:58:55.253Z,19.20
2023-01-28T05:59:28.683Z,17.80
2023-01-28T06:00:07.092Z,15.30
2023-01-28T06:00:48.008Z,18.30
2023-01-28T06:01:23.529Z,19.00
2023-01-28T06:02:01.711Z,18.20
2023-01-28T06:02:35.431Z,17.40
2023-01-28T06:03:09.914Z,18.40
2023-01-28T06:03:43.780Z,18.90
2023-01-28T06:04:20.557Z,18.20
2023-01-28T06:04:54.091Z,18.00
2023-01-28T06:05:27.631Z,18.50
2023-01-28T06:06:01.755Z,18.80
2023-01-28T06:06:35.828Z,18.00
2023-01-28T06:07:13.511Z,19.00
2023-01-28T06:07:49.569Z,18.60
2023-01-28T06:08:23.219Z,17.00
2023-01-28T06:08:59.938Z,17.70
2023-01-28T06:09:36.134Z,17.50
2023-01-28T06:10:10.233Z,17.50
2023-01-28T06:10:43.735Z,18.10
2023-01-28T06:11:20.046Z,19.60
2023-01-28T06:11:54.165Z,19.40
2023-01-28T06:12:30.824Z,19.30
2023-01-28T06:13:23.236Z,16.60
2023-01-28T06:14:31.837Z,14.60
2023-01-28T06:15:14.457Z,16.70
2023-01-28T06:16:14.159Z,14.50
2023-01-28T06:17:05.697Z,14.50
2023-01-28T06:17:44.483Z,15.90
2023-01-28T06:18:29.424Z,15.50
2023-01-28T06:19:03.247Z,15.80
2023-01-28T06:19:39.049Z,16.10
2023-01-28T06:20:13.938Z,15.70
2023-01-28T06:20:50.054Z,14.70
2023-01-28T06:21:23.537Z,15.00
2023-01-28T06:21:57.006Z,16.00
2023-01-28T06:22:30.394Z,16.40
2023-01-28T06:23:03.915Z,15.90
2023-01-28T06:23:37.426Z,17.00
2023-01-28T06:24:14.448Z,15.60
2023-01-28T06:24:48.125Z,15.00
2023-01-28T06:25:21.548Z,16.70
2023-01-28T06:25:56.442Z,16.20
2023-01-28T06:26:29.906Z,15.90
2023-01-28T06:27:03.385Z,17.20
2023-01-28T06:27:37.779Z,17.00
2023-01-28T06:28:13.501Z,17.00
2023-01-28T06:28:47.347Z,15.80
2023-01-28T06:29:21.078Z,16.10
2023-01-28T06:29:54.707Z,16.00
2023-01-28T06:30:30.530Z,15.40
2023-01-28T06:31:04.076Z,15.50
2023-01-28T06:31:37.521Z,14.80
2023-01-28T06:32:11.234Z,14.30
2023-01-28T06:32:45.138Z,14.20
2023-01-28T06:33:21.879Z,13.60
2023-01-28T06:33:55.534Z,13.90
2023-01-28T06:34:28.993Z,13.30
2023-01-28T06:35:02.597Z,13.70
2023-01-28T06:35:39.174Z,13.00
2023-01-28T06:36:12.750Z,14.60
2023-01-28T06:36:48.621Z,13.70
2023-01-28T06:37:22.344Z,13.20
2023-01-28T06:37:56.008Z,13.20
2023-01-28T06:38:29.550Z,14.00
2023-01-28T06:39:02.949Z,14.30
2023-01-28T06:39:36.699Z,13.90
2023-01-28T06:40:13.704Z,14.20
2023-01-28T06:40:56.144Z,12.80
2023-01-28T06:41:29.579Z,12.90
2023-01-28T06:42:02.995Z,12.50
2023-01-28T06:42:36.591Z,13.30
2023-01-28T06:43:10.022Z,13.60
2023-01-28T06:43:43.762Z,13.40
2023-01-28T06:44:17.144Z,13.20
2023-01-28T06:44:50.537Z,12.50
2023-01-28T06:45:24.017Z,11.00
2023-01-28T06:45:58.423Z,11.00
2023-01-28T06:46:31.968Z,10.60
2023-01-28T06:47:05.534Z,11.00
2023-01-28T06:47:40.053Z,11.30
2023-01-28T06:48:13.512Z,10.70
2023-01-28T06:48:46.868Z,11.60
2023-01-28T06:49:22.498Z,12.50
2023-01-28T06:49:55.864Z,11.60
2023-01-28T06:50:29.265Z,11.40
2023-01-28T06:51:02.758Z,12.20
2023-01-28T06:51:36.424Z,10.40
2023-01-28T06:52:09.801Z,11.80
2023-01-28T06:52:43.344Z,10.70
2023-01-28T06:53:17.928Z,11.30
2023-01-28T06:53:51.305Z,11.00
2023-01-28T06:54:24.805Z,10.80
2023-01-28T06:54:58.213Z,11.00
2023-01-28T06:55:38.731Z,11.20
2023-01-28T06:56:12.091Z,11.60
2023-01-28T06:56:47.582Z,12.20
2023-01-28T06:57:20.956Z,12.50
2023-01-28T06:57:54.405Z,13.20
2023-01-28T06:58:27.833Z,11.70
2023-01-28T06:59:01.314Z,13.30
2023-01-28T06:59:34.792Z,12.80
2023-01-28T07:00:13.908Z,13.60
2023-01-28T07:00:47.495Z,13.40
2023-01-28T07:01:20.925Z,13.30
2023-01-28T07:01:54.396Z,13.50
2023-01-28T07:02:27.872Z,12.80
2023-01-28T07:03:04.102Z,13.70
2023-01-28T07:03:37.624Z,15.30
2023-01-28T07:04:11.037Z,13.90
2023-01-28T07:04:44.574Z,13.60
2023-01-28T07:05:20.074Z,11.50
2023-01-28T07:05:55.799Z,13.30
2023-01-28T07:06:29.239Z,12.80
2023-01-28T07:07:02.628Z,14.10
2023-01-28T07:07:36.474Z,14.40
2023-01-28T07:08:09.909Z,13.70
2023-01-28T07:08:43.263Z,14.30
2023-01-28T07:09:16.639Z,12.80
2023-01-28T07:09:50.048Z,13.20
2023-01-28T07:10:23.564Z,12.00
2023-01-28T07:10:57.212Z,11.00
2023-01-28T07:11:30.617Z,12.30
2023-01-28T07:12:05.605Z,12.90
2023-01-28T07:12:39.588Z,13.40
2023-01-28T07:13:15.386Z,12.20
2023-01-28T07:13:48.922Z,12.30
2023-01-28T07:14:22.348Z,13.90
2023-01-28T07:14:55.766Z,12.30
2023-01-28T07:15:29.349Z,11.10
2023-01-28T07:16:03.165Z,11.60
2023-01-28T07:16:36.661Z,12.00
2023-01-28T07:17:10.102Z,13.50
2023-01-28T07:17:43.693Z,11.80
2023-01-28T07:18:20.036Z,13.60
2023-01-28T07:18:53.400Z,12.30
2023-01-28T07:19:26.772Z,11.50
2023-01-28T07:20:00.113Z,12.80
2023-01-28T07:20:33.706Z,11.30
2023-01-28T07:21:07.170Z,13.80
2023-01-28T07:21:40.563Z,13.50
2023-01-28T07:22:14.011Z,11.60
2023-01-28T07:22:47.416Z,11.30
2023-01-28T07:23:23.278Z,11.10
2023-01-28T07:23:58.730Z,13.10
2023-01-28T07:24:32.211Z,11.20
2023-01-28T07:25:06.952Z,11.80
2023-01-28T07:25:40.350Z,12.00
2023-01-28T07:26:13.815Z,11.60
2023-01-28T07:26:48.401Z,11.00
2023-01-28T07:27:21.733Z,10.00
2023-01-28T07:27:55.079Z,10.30
2023-01-28T07:28:28.460Z,9.00
2023-01-28T07:29:01.878Z,10.50
2023-01-28T07:29:35.542Z,11.40
2023-01-28T07:30:09.650Z,11.90
2023-01-28T07:30:43.039Z,11.60
2023-01-28T07:31:16.469Z,11.10
2023-01-28T07:31:52.148Z,13.30
2023-01-28T07:32:27.657Z,12.50
2023-01-28T07:33:01.149Z,13.20
2023-01-28T07:33:34.756Z,11.90
2023-01-28T07:34:10.035Z,11.60
2023-01-28T07:34:43.479Z,12.00
2023-01-28T07:35:16.996Z,12.00
2023-01-28T07:35:50.435Z,11.50
2023-01-28T07:36:23.816Z,11.40
2023-01-28T07:36:57.545Z,11.50
2023-01-28T07:37:31.024Z,13.10
2023-01-28T07:38:06.663Z,11.50
2023-01-28T07:38:40.041Z,12.30
2023-01-28T07:39:13.387Z,11.20
2023-01-28T07:39:46.993Z,12.60
2023-01-28T07:40:21.273Z,12.80
2023-01-28T07:40:54.625Z,13.30
2023-01-28T07:41:30.248Z,11.00
2023-01-28T07:42:11.128Z,12.10
2023-01-28T07:42:51.873Z,9.50
2023-01-28T07:43:28.286Z,10.40
2023-01-28T07:44:01.672Z,11.00
2023-01-28T07:44:37.772Z,12.10
2023-01-28T07:45:11.691Z,12.10
2023-01-28T07:45:46.937Z,11.80
2023-01-28T07:46:22.235Z,11.70
2023-01-28T07:46:55.664Z,9.30
2023-01-28T07:47:29.126Z,10.20
2023-01-28T07:48:06.367Z,9.30
2023-01-28T07:48:41.887Z,10.60
2023-01-28T07:49:15.352Z,9.20
2023-01-28T07:49:48.744Z,9.10
2023-01-28T07:50:22.181Z,9.60
2023-01-28T07:51:00.167Z,9.00
2023-01-28T07:51:33.578Z,9.80
2023-01-28T07:52:08.283Z,10.20
2023-01-28T07:52:45.963Z,10.70
2023-01-28T07:53:20.334Z,8.80
2023-01-28T07:53:53.820Z,8.40
2023-01-28T07:54:27.180Z,9.70
2023-01-28T07:55:00.606Z,8.40
2023-01-28T07:55:36.266Z,9.50
2023-01-28T07:56:11.928Z,9.40
2023-01-28T07:56:45.470Z,9.30
2023-01-28T07:57:23.642Z,9.30
2023-01-28T07:58:00.953Z,9.30
2023-01-28T07:58:35.187Z,9.70
2023-01-28T07:59:08.597Z,9.20
2023-01-28T07:59:41.903Z,10.70
2023-01-28T08:00:16.081Z,7.70
2023-01-28T08:00:49.909Z,7.60
2023-01-28T08:01:25.405Z,10.90
2023-01-28T08:01:58.950Z,10.10
2023-01-28T08:02:32.436Z,10.30
2023-01-28T08:03:16.115Z,9.70
2023-01-28T08:03:49.467Z,8.90
2023-01-28T08:04:22.987Z,6.90
2023-01-28T08:04:59.597Z,7.60
2023-01-28T08:05:41.679Z,8.50
2023-01-28T08:06:15.015Z,7.70
2023-01-28T08:06:48.495Z,6.10
2023-01-28T08:07:21.892Z,7.80
2023-01-28T08:07:55.353Z,8.20
2023-01-28T08:08:28.797Z,8.70
2023-01-28T08:09:02.387Z,8.60
2023-01-28T08:09:36.146Z,8.70
2023-01-28T08:10:11.210Z,9.30
2023-01-28T08:10:45.593Z,9.30
2023-01-28T08:11:19.075Z,9.50
2023-01-28T08:11:52.822Z,8.90
2023-01-28T08:12:26.322Z,7.90
2023-01-28T08:12:59.883Z,8.60
2023-01-28T08:13:33.263Z,8.20
2023-01-28T08:14:07.174Z,9.10
2023-01-28T08:14:42.958Z,9.10
2023-01-28T08:15:16.372Z,8.40
2023-01-28T08:15:49.835Z,8.30
2023-01-28T08:16:23.227Z,7.70
2023-01-28T08:16:58.039Z,8.20